Time;durP1;ratioP1;P1;durP2;ratioP2;P2;SDS_P1;SDS_P2;PMS_P1;PMS_P2;Temp;Humidity;BMP_temperature;BMP_pressure;BME280_temperature;BME280_humidity;BME280_pressure;Samples;Min_cycle;Max_cycle;Signal;HPM_P1;HPM_P2
2022/06/14 00:00:55;;;;;;;4.07;0.90;;;;;;;15.68;54.64;101750.53;5015203;28;20510;-51
2022/06/14 00:03:33;;;;;;;3.35;0.90;;;;;;;15.66;55.06;101762.16;5027307;28;20099;-51
2022/06/14 00:06:03;;;;;;;2.78;1.02;;;;;;;15.61;55.07;101753.66;5016684;28;20040;-51
2022/06/14 00:08:29;;;;;;;1.55;0.77;;;;;;;15.52;55.41;101753.28;5020974;28;20560;-52
2022/06/14 00:10:57;;;;;;;3.00;0.80;;;;;;;15.47;55.57;101750.09;5015757;28;20038;-53
2022/06/14 00:13:24;;;;;;;4.72;0.90;;;;;;;15.45;55.94;101759.06;5019745;28;20060;-54
2022/06/14 00:15:50;;;;;;;3.45;1.05;;;;;;;15.41;56.13;101758.41;5022256;28;20032;-53
2022/06/14 00:18:16;;;;;;;4.80;1.10;;;;;;;15.43;56.10;101761.81;5015604;28;20034;-54
2022/06/14 00:20:45;;;;;;;4.72;0.80;;;;;;;15.48;56.05;101765.06;5020361;28;20108;-52
2022/06/14 00:23:10;;;;;;;4.00;1.13;;;;;;;15.50;55.94;101764.94;5018625;28;20033;-55
2022/06/14 00:25:41;;;;;;;3.30;1.08;;;;;;;15.53;55.87;101770.06;5021328;28;20037;-54
2022/06/14 00:28:10;;;;;;;2.97;0.90;;;;;;;15.48;55.87;101769.47;5016740;28;20500;-50
2022/06/14 00:30:37;;;;;;;2.73;1.10;;;;;;;15.46;56.03;101768.72;5025186;28;20120;-54
2022/06/14 00:33:03;;;;;;;2.38;1.02;;;;;;;15.43;56.26;101779.53;5020776;28;20143;-53
2022/06/14 00:35:30;;;;;;;2.15;1.00;;;;;;;15.36;56.44;101781.69;5021115;28;20159;-52
2022/06/14 00:37:56;;;;;;;2.20;0.75;;;;;;;15.34;56.58;101783.63;5024525;28;20040;-52
2022/06/14 00:40:25;;;;;;;2.60;0.90;;;;;;;15.28;56.68;101784.81;5023226;28;20033;-52
2022/06/14 00:42:52;;;;;;;4.83;1.33;;;;;;;15.23;56.86;101782.44;5022925;28;20094;-50
2022/06/14 00:45:17;;;;;;;7.47;1.23;;;;;;;15.20;57.00;101787.09;5022221;28;20081;-52
2022/06/14 00:47:51;;;;;;;7.25;1.50;;;;;;;15.16;56.97;101794.41;5023165;28;20491;-54
2022/06/14 00:50:22;;;;;;;3.40;1.10;;;;;;;15.15;57.24;101798.00;5021311;28;20641;-52
2022/06/14 00:53:20;;;;;;;3.80;1.00;;;;;;;15.19;57.01;101790.69;5018796;28;20065;-54
2022/06/14 00:55:52;;;;;;;8.65;1.00;;;;;;;15.25;56.85;101785.03;5020197;28;20559;-52
2022/06/14 00:58:41;;;;;;;2.17;1.20;;;;;;;15.22;56.69;101779.91;5035563;28;20030;-52
2022/06/14 01:01:13;;;;;;;4.13;1.10;;;;;;;15.21;56.92;101789.66;5019152;28;20018;-52
2022/06/14 01:03:53;;;;;;;2.72;1.10;;;;;;;15.19;56.90;101794.22;5025255;28;20028;-51
2022/06/14 01:06:36;;;;;;;7.13;1.20;;;;;;;15.20;57.04;101793.25;5020161;28;20025;-51
2022/06/14 01:09:06;;;;;;;2.90;1.00;;;;;;;15.24;56.80;101783.31;5016532;28;20048;-50
2022/06/14 01:11:54;;;;;;;3.40;1.10;;;;;;;15.27;56.80;101787.56;5022827;28;20163;-53
2022/06/14 01:14:26;;;;;;;5.80;1.38;;;;;;;15.28;56.62;101784.81;5022679;28;20036;-52
2022/06/14 01:16:51;;;;;;;3.30;1.15;;;;;;;15.22;56.68;101788.69;5019591;28;20124;-51
2022/06/14 01:19:24;;;;;;;3.42;1.20;;;;;;;15.19;56.86;101780.97;5021709;28;20082;-52
2022/06/14 01:22:00;;;;;;;3.55;1.00;;;;;;;15.13;56.91;101786.63;5018446;28;20075;-51
2022/06/14 01:24:26;;;;;;;4.03;1.10;;;;;;;15.10;56.93;101792.09;5019845;28;20037;-53
2022/06/14 01:26:51;;;;;;;5.13;1.30;;;;;;;15.03;56.79;101786.31;5021047;28;20037;-54
2022/06/14 01:29:19;;;;;;;3.85;1.15;;;;;;;14.94;56.97;101793.03;5019328;28;20440;-53
2022/06/14 01:31:46;;;;;;;5.25;1.30;;;;;;;14.84;57.17;101789.22;5012000;28;20501;-51
2022/06/14 01:34:13;;;;;;;3.22;1.02;;;;;;;14.72;57.51;101793.44;5029299;28;20057;-53
2022/06/14 01:36:40;;;;;;;5.20;1.10;;;;;;;14.68;57.73;101789.25;5021419;28;20024;-54
2022/06/14 01:39:09;;;;;;;4.75;1.10;;;;;;;14.69;57.62;101784.81;5019130;28;20392;-51
2022/06/14 01:42:02;;;;;;;2.30;0.90;;;;;;;14.70;57.61;101797.13;5019602;28;20129;-49
2022/06/14 01:45:03;;;;;;;5.95;1.30;;;;;;;14.71;57.52;101793.53;5020545;28;20037;-52
2022/06/14 01:47:40;;;;;;;4.30;1.05;;;;;;;14.72;57.05;101792.59;5018260;28;20041;-55
2022/06/14 01:53:50;;;;;;;8.02;1.40;;;;;;;14.73;56.85;101795.16;5017845;28;20124;-52
2022/06/14 01:56:42;;;;;;;3.25;1.13;;;;;;;14.77;56.63;101801.09;5016613;28;20057;-54
2022/06/14 01:59:14;;;;;;;6.30;1.20;;;;;;;14.76;56.72;101805.56;5021351;28;20163;-53
2022/06/14 02:02:27;;;;;;;5.38;1.67;;;;;;;14.79;56.51;101809.81;5009054;28;20026;-49
2022/06/14 02:05:04;;;;;;;5.13;1.40;;;;;;;14.81;56.34;101809.75;5018223;28;20025;-53
2022/06/14 02:07:41;;;;;;;3.95;1.10;;;;;;;14.80;56.29;101811.53;5020338;28;20026;-54
2022/06/14 02:10:21;;;;;;;7.75;1.25;;;;;;;14.79;56.27;101809.81;5013396;28;20045;-53
2022/06/14 02:13:13;;;;;;;3.80;1.20;;;;;;;14.77;56.24;101812.56;5019564;28;20052;-51
2022/06/14 02:15:55;;;;;;;6.07;1.30;;;;;;;14.73;56.07;101812.84;5020457;28;20106;-49
2022/06/14 02:18:28;;;;;;;4.40;1.10;;;;;;;14.72;56.14;101819.09;5025991;28;20052;-50
2022/06/14 02:20:56;;;;;;;3.88;1.33;;;;;;;14.74;56.09;101817.22;5015973;28;20025;-51
2022/06/14 02:23:24;;;;;;;3.58;1.17;;;;;;;14.76;56.13;101815.28;5017594;28;20021;-49
2022/06/14 02:26:01;;;;;;;5.65;1.52;;;;;;;14.74;55.98;101817.22;5013018;28;20144;-49
2022/06/14 02:28:28;;;;;;;4.05;1.13;;;;;;;14.70;55.78;101811.22;5019006;28;20032;-53
2022/06/14 02:31:00;;;;;;;5.43;1.60;;;;;;;14.68;55.93;101814.91;5020393;28;20025;-50
2022/06/14 02:33:41;;;;;;;3.15;1.10;;;;;;;14.62;56.11;101814.28;5018255;28;20033;-50
2022/06/14 02:36:33;;;;;;;4.97;1.23;;;;;;;14.54;56.16;101807.72;5016100;28;20031;-50
2022/06/14 02:39:22;;;;;;;5.47;1.20;;;;;;;14.51;56.19;101811.41;5022156;28;20082;-49
2022/06/14 02:42:19;;;;;;;6.10;1.85;;;;;;;14.52;56.40;101815.75;5016859;28;20124;-50
2022/06/14 02:44:53;;;;;;;5.18;1.52;;;;;;;14.57;56.29;101826.06;5012761;28;20030;-49
2022/06/14 02:47:22;;;;;;;5.05;1.40;;;;;;;14.57;56.14;101826.94;5011755;28;20036;-50
2022/06/14 02:49:54;;;;;;;4.63;1.30;;;;;;;14.54;56.24;101815.66;5014644;28;20029;-51
2022/06/14 02:52:41;;;;;;;2.75;1.35;;;;;;;14.53;56.25;101819.25;5022932;28;20110;-53
2022/06/14 02:55:17;;;;;;;4.85;1.30;;;;;;;14.50;56.24;101825.56;5018395;28;20097;-52
2022/06/14 02:57:53;;;;;;;3.38;1.60;;;;;;;14.46;56.26;101824.03;5027194;28;20509;-49
2022/06/14 03:00:24;;;;;;;9.93;1.73;;;;;;;14.40;56.52;101824.41;5018220;28;20046;-50
2022/06/14 03:03:08;;;;;;;4.70;1.50;;;;;;;14.32;56.56;101830.97;5022113;28;20017;-49
2022/06/14 03:05:44;;;;;;;5.40;1.90;;;;;;;14.27;56.55;101827.75;5017849;28;20048;-50
2022/06/14 03:08:13;;;;;;;6.70;1.70;;;;;;;14.24;56.76;101827.91;5017879;28;20018;-50
2022/06/14 03:11:17;;;;;;;3.43;1.30;;;;;;;14.21;56.74;101820.13;5018631;28;20029;-50
2022/06/14 03:13:59;;;;;;;3.78;1.40;;;;;;;14.24;56.71;101821.75;5019240;28;20123;-49
2022/06/14 03:17:03;;;;;;;3.83;1.23;;;;;;;14.19;56.62;101827.31;5026352;28;20044;-50
2022/06/14 03:19:43;;;;;;;5.63;1.17;;;;;;;-147.11;100.00;61570.13;5019428;28;20028;-50
2022/06/14 03:22:17;;;;;;;9.02;1.50;;;;;;;-147.11;100.00;61570.13;5022635;28;20124;-52
2022/06/14 03:24:42;;;;;;;7.32;1.20;;;;;;;-147.11;100.00;61570.13;5020720;28;20034;-50
2022/06/14 03:27:26;;;;;;;5.28;1.45;;;;;;;-147.11;100.00;61570.13;5019915;28;20112;-49
2022/06/14 03:30:00;;;;;;;5.45;1.35;;;;;;;-147.11;100.00;61570.13;5026082;28;20076;-50
2022/06/14 03:32:35;;;;;;;5.30;1.50;;;;;;;-147.11;100.00;61570.13;5029460;28;20044;-50
2022/06/14 03:35:29;;;;;;;5.22;1.33;;;;;;;-147.11;100.00;61570.13;5017673;28;20025;-51
2022/06/14 03:37:58;;;;;;;7.78;1.67;;;;;;;-147.11;100.00;61570.13;5020907;28;20037;-49
2022/06/14 03:40:24;;;;;;;4.47;1.30;;;;;;;-147.11;100.00;61570.13;5017964;28;20034;-49
2022/06/14 03:42:50;;;;;;;6.78;1.45;;;;;;;-147.11;100.00;61570.13;5025615;28;20042;-52
2022/06/14 03:45:20;;;;;;;6.40;1.58;;;;;;;-147.11;100.00;61570.13;5020055;28;20060;-53
2022/06/14 03:47:46;;;;;;;;;;;;;;;-147.11;100.00;61570.13;5023956;28;20021;-49
2022/06/14 03:50:24;;;;;;;5.10;1.50;;;;;;;-147.11;100.00;61570.13;5021361;28;20304;-53
2022/06/14 03:52:59;;;;;;;4.90;1.40;;;;;;;-147.11;100.00;61570.13;5022816;28;20037;-51
2022/06/14 03:55:51;;;;;;;5.50;1.50;;;;;;;-147.11;100.00;61570.13;5023419;28;20052;-49
2022/06/14 03:58:35;;;;;;;3.03;1.42;;;;;;;-147.11;100.00;61570.13;5023336;28;20083;-49
2022/06/14 04:01:09;;;;;;;7.10;1.80;;;;;;;-147.11;100.00;61570.13;5019844;28;20033;-50
2022/06/14 04:03:58;;;;;;;9.95;2.40;;;;;;;-147.11;100.00;61570.13;5013931;28;20480;-50
2022/06/14 04:06:55;;;;;;;6.43;1.63;;;;;;;-147.11;100.00;61570.13;5015638;28;20041;-50
2022/06/14 04:09:41;;;;;;;51.22;11.68;;;;;;;-147.11;100.00;61570.13;5016781;28;20031;-51
2022/06/14 04:12:33;;;;;;;5.22;1.92;;;;;;;-147.11;100.00;61570.13;5019432;28;20563;-49
2022/06/14 04:15:15;;;;;;;5.28;1.50;;;;;;;-147.11;100.00;61570.13;5022697;28;20026;-51
2022/06/14 04:17:40;;;;;;;5.13;1.65;;;;;;;-147.11;100.00;61570.13;5025385;28;20040;-50
2022/06/14 04:20:15;;;;;;;9.13;1.50;;;;;;;14.42;56.55;101833.97;5022889;28;20025;-50
2022/06/14 04:23:09;;;;;;;7.22;1.48;;;;;;;14.50;56.60;101835.34;5021399;28;20032;-49
2022/06/14 04:25:39;;;;;;;6.68;1.65;;;;;;;14.51;56.12;101835.22;5020090;28;20053;-50
2022/06/14 04:28:23;;;;;;;4.55;1.35;;;;;;;14.46;56.63;101834.63;5015098;28;20033;-50
2022/06/14 04:31:23;;;;;;;9.23;1.58;;;;;;;14.44;56.50;101836.53;5020409;28;20401;-52
2022/06/14 04:33:57;;;;;;;7.40;1.38;;;;;;;14.44;56.43;101839.19;5004808;28;20036;-50
2022/06/14 04:36:54;;;;;;;7.35;1.48;;;;;;;14.47;56.56;101846.94;5021605;28;20052;-50
2022/06/14 04:39:30;;;;;;;6.03;2.08;;;;;;;14.50;56.44;101846.75;5018131;28;20045;-50
2022/06/14 04:42:01;;;;;;;9.80;2.55;;;;;;;14.52;56.39;101847.53;5015748;28;20100;-49
2022/06/14 04:44:39;;;;;;;6.20;1.70;;;;;;;14.51;56.48;101844.97;5012358;28;20109;-49
2022/06/14 04:47:32;;;;;;;9.48;1.55;;;;;;;14.48;56.79;101853.94;5015570;28;20022;-49
2022/06/14 04:50:17;;;;;;;5.28;1.45;;;;;;;14.53;56.63;101854.53;5019350;28;20093;-49
2022/06/14 04:52:45;;;;;;;7.03;1.60;;;;;;;14.57;56.45;101850.78;5016482;28;20041;-51
2022/06/14 04:55:22;;;;;;;6.10;1.50;;;;;;;14.60;56.18;101853.22;5022031;28;20029;-50
2022/06/14 04:58:01;;;;;;;9.45;1.90;;;;;;;14.59;56.40;101854.22;5018918;28;20095;-53
2022/06/14 05:00:34;;;;;;;7.50;1.63;;;;;;;14.61;56.45;101844.34;5007615;28;20052;-50
2022/06/14 05:03:24;;;;;;;103.80;26.20;;;;;;;14.69;56.58;101848.41;5019395;28;20041;-49
2022/06/14 05:05:56;;;;;;;8.63;1.70;;;;;;;14.77;56.56;101865.56;5019212;28;20017;-50
2022/06/14 05:08:44;;;;;;;13.07;1.85;;;;;;;14.81;56.19;101855.63;5027106;28;20120;-50
2022/06/14 05:11:24;;;;;;;7.65;1.65;;;;;;;14.85;56.11;101858.94;5017621;28;20037;-54
2022/06/14 05:14:27;;;;;;;8.50;1.80;;;;;;;14.93;56.07;101857.56;5025729;28;20380;-54
2022/06/14 05:17:07;;;;;;;9.02;2.10;;;;;;;15.01;55.80;101859.75;5018499;28;20033;-54
2022/06/14 05:20:24;;;;;;;6.68;1.75;;;;;;;15.01;55.74;101861.56;5016104;28;20032;-52
2022/06/14 05:23:02;;;;;;;6.10;1.42;;;;;;;14.99;55.69;101859.00;5014092;28;20440;-54
2022/06/14 05:25:41;;;;;;;6.80;1.60;;;;;;;14.98;55.58;101867.88;5025193;28;20476;-53
2022/06/14 05:28:13;;;;;;;6.57;1.90;;;;;;;14.98;55.47;101888.25;5022107;28;20486;-54
2022/06/14 05:30:55;;;;;;;7.65;1.90;;;;;;;14.94;55.58;101871.69;5026739;28;20034;-55
2022/06/14 05:33:39;;;;;;;9.48;1.80;;;;;;;14.93;55.77;101880.56;5026845;28;20034;-52
2022/06/14 05:36:10;;;;;;;8.82;1.55;;;;;;;14.93;55.86;101878.75;5018909;28;20025;-55
2022/06/14 05:39:05;;;;;;;8.88;1.70;;;;;;;14.93;55.78;101873.47;5028470;28;20028;-53
2022/06/14 05:41:40;;;;;;;8.40;1.67;;;;;;;14.93;55.94;101867.31;5022019;28;20087;-52
2022/06/14 05:44:09;;;;;;;7.22;1.90;;;;;;;15.00;55.92;101870.47;5022687;28;20477;-54
2022/06/14 05:46:55;;;;;;;6.97;2.15;;;;;;;15.03;55.95;101881.72;5019459;28;20056;-55
2022/06/14 05:49:29;;;;;;;7.53;1.48;;;;;;;15.08;55.69;101869.06;5022957;28;20503;-54
2022/06/14 05:52:10;;;;;;;5.65;1.60;;;;;;;15.08;55.71;101878.81;5022544;28;20052;-55
2022/06/14 05:54:45;;;;;;;8.57;1.98;;;;;;;15.13;55.67;101879.41;5033255;28;20034;-53
2022/06/14 05:57:27;;;;;;;6.57;1.70;;;;;;;15.15;55.64;101879.28;5017602;28;20144;-51
2022/06/14 06:00:14;;;;;;;5.95;1.35;;;;;;;15.17;55.58;101866.81;5018540;28;20052;-55
2022/06/14 06:03:01;;;;;;;9.60;2.10;;;;;;;15.23;55.42;101877.91;5017944;28;20033;-54
2022/06/14 06:05:32;;;;;;;8.10;2.22;;;;;;;15.25;55.31;101888.44;5022020;28;20044;-53
2022/06/14 06:08:16;;;;;;;8.75;1.70;;;;;;;15.23;55.17;101893.81;5025833;28;20021;-55
2022/06/14 06:10:45;;;;;;;12.38;2.00;;;;;;;15.22;55.10;101884.16;5019980;28;20105;-54
2022/06/14 06:13:20;;;;;;;8.55;1.98;;;;;;;15.22;55.17;101881.50;5018828;28;20029;-53
2022/06/14 06:15:51;;;;;;;8.38;1.52;;;;;;;15.19;55.17;101875.53;5021942;28;20029;-54
2022/06/14 06:18:25;;;;;;;9.07;2.33;;;;;;;15.17;55.52;101880.94;5019850;28;20030;-51
2022/06/14 06:20:58;;;;;;;7.13;1.70;;;;;;;15.20;55.43;101878.06;5024303;28;20025;-52
2022/06/14 06:23:33;;;;;;;6.63;1.80;;;;;;;15.24;55.31;101884.91;5019094;28;20037;-55
2022/06/14 06:25:58;;;;;;;8.88;1.90;;;;;;;15.26;55.17;101870.72;5015543;28;20033;-55
2022/06/14 06:28:37;;;;;;;9.20;2.00;;;;;;;15.27;54.85;101888.34;5022393;28;20038;-55
2022/06/14 06:31:14;;;;;;;11.00;1.80;;;;;;;15.17;55.01;101877.41;5023003;28;20110;-56
2022/06/14 06:33:43;;;;;;;7.60;1.83;;;;;;;15.15;55.16;101879.28;5030181;28;20029;-55
2022/06/14 06:36:46;;;;;;;10.85;1.98;;;;;;;15.14;55.23;101893.50;5025849;28;20077;-52
2022/06/14 06:39:31;;;;;;;7.90;1.73;;;;;;;15.17;55.17;101886.25;5022150;28;20080;-53
2022/06/14 06:42:05;;;;;;;10.40;1.83;;;;;;;15.24;55.18;101892.03;5027097;28;20034;-52
2022/06/14 06:44:39;;;;;;;9.70;1.50;;;;;;;15.30;54.75;101889.00;5019164;28;20091;-55
2022/06/14 06:47:07;;;;;;;12.38;1.50;;;;;;;15.34;54.72;101889.69;5027575;28;20044;-55
2022/06/14 06:50:11;;;;;;;4.78;1.35;;;;;;;15.36;54.69;101886.00;5043912;28;20025;-52
2022/06/14 06:53:01;;;;;;;9.40;1.58;;;;;;;15.44;54.53;101896.13;5025812;28;20047;-55
2022/06/14 06:55:32;;;;;;;7.75;2.03;;;;;;;15.49;54.19;101899.38;5026166;28;20032;-54
2022/06/14 06:58:01;;;;;;;6.72;1.38;;;;;;;15.58;54.17;101905.91;5021258;28;20037;-53
2022/06/14 07:00:29;;;;;;;6.47;1.65;;;;;;;15.61;53.57;101907.53;5026108;28;20029;-55
2022/06/14 07:03:01;;;;;;;5.53;1.38;;;;;;;15.62;53.76;101925.16;5022354;28;20037;-55
2022/06/14 07:05:27;;;;;;;7.53;1.60;;;;;;;15.68;53.75;101924.78;5026560;28;20136;-55
2022/06/14 07:07:55;;;;;;;8.82;1.73;;;;;;;15.68;53.39;101919.47;5023684;28;20129;-53
2022/06/14 07:10:33;;;;;;;6.15;1.25;;;;;;;15.67;53.31;101909.78;5022772;28;20033;-54
2022/06/14 07:13:07;;;;;;;9.07;1.60;;;;;;;15.70;53.61;101918.44;5019710;28;20032;-56
2022/06/14 07:15:38;;;;;;;9.10;2.80;;;;;;;15.78;53.61;101917.09;5023769;28;20034;-52
2022/06/14 07:18:15;;;;;;;7.85;1.58;;;;;;;15.80;53.25;101918.75;5027532;28;20111;-55
2022/06/14 07:20:51;;;;;;;6.45;1.45;;;;;;;15.83;53.23;101918.53;5023490;28;20025;-53
2022/06/14 07:23:41;;;;;;;9.13;1.70;;;;;;;15.93;53.02;101921.50;5028554;28;20493;-52
2022/06/14 07:26:09;;;;;;;9.15;2.13;;;;;;;16.00;52.25;101927.28;5025551;28;20040;-55
2022/06/14 07:28:46;;;;;;;10.45;1.80;;;;;;;15.91;52.05;101935.81;5026636;28;20022;-53
2022/06/14 07:31:37;;;;;;;7.95;1.52;;;;;;;15.84;52.08;101925.53;5024795;28;20120;-51
2022/06/14 07:34:04;;;;;;;6.20;1.50;;;;;;;15.77;52.31;101933.97;5018030;28;20401;-51
2022/06/14 07:36:38;;;;;;;8.98;1.70;;;;;;;15.76;52.42;101924.31;5027031;28;20430;-56
2022/06/14 07:39:19;;;;;;;14.20;1.63;;;;;;;15.78;52.36;101923.28;5035335;28;20399;-54
2022/06/14 07:42:07;;;;;;;5.38;1.30;;;;;;;15.82;52.38;101916.81;5024478;28;20091;-55
2022/06/14 07:44:38;;;;;;;12.98;1.40;;;;;;;15.88;52.28;101914.78;5022723;28;20075;-55
2022/06/14 07:47:19;;;;;;;3.60;1.40;;;;;;;15.95;51.95;101914.31;5028936;28;20025;-55
2022/06/14 07:49:53;;;;;;;6.32;1.20;;;;;;;16.02;51.83;101920.09;5025564;28;20033;-51
2022/06/14 07:52:37;;;;;;;9.55;1.80;;;;;;;16.05;51.65;101922.56;5021776;28;20093;-50
2022/06/14 07:55:08;;;;;;;8.18;1.63;;;;;;;16.09;51.37;101918.75;5025729;28;20485;-56
2022/06/14 07:57:41;;;;;;;8.70;1.60;;;;;;;16.14;51.17;101921.97;5027497;28;20412;-52
2022/06/14 08:03:30;;;;;;;5.43;1.55;;;;;;;16.24;50.77;101908.13;5026509;28;20127;-56
2022/06/14 08:05:58;;;;;;;7.80;1.42;;;;;;;16.34;50.31;101917.22;5025194;28;20113;-53
2022/06/14 08:08:29;;;;;;;5.03;1.17;;;;;;;16.35;49.64;101923.34;5028530;28;20029;-55
2022/06/14 08:11:00;;;;;;;8.02;1.33;;;;;;;16.37;49.45;101916.16;5028584;28;20033;-53
2022/06/14 08:13:33;;;;;;;5.93;1.25;;;;;;;16.38;48.75;101924.03;5028249;28;20028;-53
2022/06/14 08:16:02;;;;;;;3.55;1.20;;;;;;;16.42;48.43;101914.06;5021864;28;20026;-55
2022/06/14 08:18:36;;;;;;;5.38;1.48;;;;;;;16.49;48.11;101925.16;5023027;28;20046;-53
2022/06/14 08:21:12;;;;;;;6.28;1.30;;;;;;;16.50;47.62;101921.53;5019729;28;20055;-52
2022/06/14 08:24:13;;;;;;;5.70;1.23;;;;;;;16.51;47.60;101933.88;5033958;28;20135;-52
2022/06/14 08:27:01;;;;;;;11.05;1.38;;;;;;;16.57;47.58;101915.72;5023199;28;20037;-53
2022/06/14 08:29:45;;;;;;;7.05;1.20;;;;;;;16.67;47.38;101923.09;5025124;28;20358;-55
2022/06/14 08:32:19;;;;;;;6.85;1.40;;;;;;;16.77;47.25;101924.22;5026568;28;20040;-56
2022/06/14 08:35:24;;;;;;;5.93;1.40;;;;;;;16.80;46.33;101920.50;5020173;28;20025;-54
2022/06/14 08:37:55;;;;;;;5.05;1.50;;;;;;;16.84;45.90;101924.69;5022902;28;20037;-54
2022/06/14 08:40:40;;;;;;;5.45;1.00;;;;;;;16.81;45.67;101928.38;5025110;28;20033;-51
2022/06/14 08:43:09;;;;;;;4.68;1.02;;;;;;;16.82;45.91;101924.75;5026111;28;20029;-53
2022/06/14 08:45:45;;;;;;;6.80;1.30;;;;;;;16.84;45.76;101924.69;5024423;28;20029;-52
2022/06/14 08:48:48;;;;;;;6.88;1.35;;;;;;;16.88;45.54;101926.16;5023566;28;20291;-55
2022/06/14 08:51:33;;;;;;;7.45;1.30;;;;;;;16.93;45.47;101924.06;5024357;28;20025;-51
2022/06/14 08:54:21;;;;;;;4.68;1.20;;;;;;;16.95;45.62;101921.31;5025534;28;20080;-52
2022/06/14 08:57:05;;;;;;;7.72;1.20;;;;;;;17.03;46.06;101919.03;5022143;28;20022;-53
2022/06/14 09:00:02;;;;;;;4.40;1.20;;;;;;;17.18;45.47;101927.75;5026276;28;20025;-50
2022/06/14 09:03:12;;;;;;;5.80;1.35;;;;;;;17.23;44.97;101930.97;5023074;28;20516;-54
2022/06/14 09:05:56;;;;;;;5.90;1.15;;;;;;;17.22;44.69;101921.28;5019236;28;20037;-55
2022/06/14 09:08:37;;;;;;;6.30;1.20;;;;;;;17.26;44.66;101927.25;5027287;28;20035;-52
2022/06/14 09:11:29;;;;;;;2.00;1.00;;;;;;;17.32;44.66;101922.38;5024226;28;20044;-51
2022/06/14 09:14:16;;;;;;;4.63;1.33;;;;;;;17.35;44.58;101930.16;5027379;28;20427;-54
2022/06/14 09:16:52;;;;;;;6.93;1.27;;;;;;;17.35;44.30;101929.31;5025306;28;20028;-55
2022/06/14 09:19:23;;;;;;;6.55;1.20;;;;;;;17.38;44.50;101937.09;5023195;28;20604;-56
2022/06/14 09:22:08;;;;;;;8.48;1.33;;;;;;;17.42;44.29;101940.38;5018042;28;20048;-52
2022/06/14 09:24:51;;;;;;;8.10;1.30;;;;;;;17.37;44.35;101938.03;5029145;28;20044;-53
2022/06/14 09:27:32;;;;;;;5.85;1.13;;;;;;;17.34;44.44;101939.06;5026345;28;20672;-54
2022/06/14 09:30:35;;;;;;;3.50;1.00;;;;;;;17.34;44.44;101939.06;5020452;28;20104;-55
2022/06/14 09:33:18;;;;;;;5.45;2.35;;;;;;;17.36;44.26;101944.31;5021239;28;20072;-52
2022/06/14 09:36:10;;;;;;;4.07;1.20;;;;;;;17.35;44.33;101946.09;5022528;28;20053;-52
2022/06/14 09:39:07;;;;;;;10.10;1.80;;;;;;;17.42;44.38;101940.38;5020012;28;20409;-52
2022/06/14 09:42:05;;;;;;;6.90;2.13;;;;;;;17.49;44.35;101958.47;5024983;28;20112;-54
2022/06/14 09:44:59;;;;;;;5.10;1.35;;;;;;;17.51;44.13;101945.06;5020668;28;20025;-54
2022/06/14 09:47:47;;;;;;;4.03;1.10;;;;;;;17.50;43.34;101943.34;5019387;28;20403;-51
2022/06/14 09:50:26;;;;;;;6.05;1.10;;;;;;;17.51;43.44;101934.41;5024598;28;20041;-53
2022/06/14 09:53:19;;;;;;;2.85;0.95;;;;;;;17.62;43.20;101952.31;5031765;28;20033;-55
2022/06/14 09:56:16;;;;;;;8.57;1.30;;;;;;;17.66;43.11;101948.50;5019239;28;20170;-55
2022/06/14 09:59:07;;;;;;;3.08;0.90;;;;;;;17.69;43.03;101942.97;5025888;28;20080;-56
2022/06/14 10:01:41;;;;;;;4.95;1.02;;;;;;;17.74;43.01;101938.16;5025724;28;20043;-52
2022/06/14 10:04:12;;;;;;;3.83;1.13;;;;;;;17.79;42.97;101941.38;5027711;28;20025;-50
2022/06/14 10:06:56;;;;;;;6.68;1.30;;;;;;;17.79;42.87;101948.47;5033855;28;24733;-51
2022/06/14 10:09:28;;;;;;;5.50;1.35;;;;;;;17.74;42.97;101948.81;5025766;28;20030;-50
2022/06/14 10:11:59;;;;;;;7.53;1.17;;;;;;;17.72;43.17;101936.56;5023973;28;20473;-51
2022/06/14 10:14:30;;;;;;;7.85;1.10;;;;;;;17.71;43.18;101943.69;5017518;28;20161;-50
2022/06/14 10:18:01;;;;;;;4.35;1.35;;;;;;;17.76;43.09;101946.06;5019430;28;20036;-52
2022/06/14 10:20:32;;;;;;;7.40;1.20;;;;;;;17.82;42.92;101942.94;5002780;28;20066;-50
2022/06/14 10:23:42;;;;;;;6.43;1.20;;;;;;;17.92;42.67;101944.00;5007181;28;20053;-50
2022/06/14 10:29:25;;;;;;;4.95;1.02;;;;;;;17.94;42.09;101931.44;5019809;28;20048;-55
2022/06/14 10:32:28;;;;;;;4.22;1.00;;;;;;;17.98;42.16;101932.13;5025857;28;20025;-51
2022/06/14 10:35:01;;;;;;;;;;;;;;;18.01;42.44;101931.06;5015289;28;20022;-53
2022/06/14 10:37:41;;;;;;;;;;;;;;;18.05;42.70;101932.53;5020707;28;25116;-51
2022/06/14 10:40:06;;;;;;;;;;;;;;;18.14;43.03;101926.56;5017213;28;25442;-51
2022/06/14 10:42:52;;;;;;;;;;;;;;;18.26;42.91;101923.00;5025877;28;19925;-51
2022/06/14 10:45:17;;;;;;;;;;;;;;;18.41;41.74;101913.06;5015309;28;20411;-50
2022/06/14 10:47:46;;;;;;;;;;;;;;;18.47;42.04;101922.44;5024812;28;20277;-50
2022/06/14 10:50:33;;;;;;;192.50;20.98;;;;;;;18.56;41.40;101916.41;5020328;28;20944;-51
2022/06/14 10:53:07;;;;;;;2.97;1.00;;;;;;;18.72;41.05;101917.94;5014946;28;20080;-52
2022/06/14 10:55:52;;;;;;;3.38;0.80;;;;;;;18.80;40.59;101912.91;5017456;28;20037;-51
2022/06/14 10:58:59;;;;;;;5.35;1.10;;;;;;;18.85;40.00;101920.56;5017793;28;20112;-51
2022/06/14 11:01:52;;;;;;;2.40;0.88;;;;;;;18.86;39.78;101919.59;5009944;28;20056;-50
2022/06/14 11:04:54;;;;;;;2.60;1.00;;;;;;;18.87;39.79;101923.97;5016026;28;20033;-50
2022/06/14 11:07:51;;;;;;;5.88;1.05;;;;;;;18.78;39.80;101925.50;5015502;28;20025;-52
2022/06/14 11:10:23;;;;;;;3.13;1.20;;;;;;;18.78;39.92;101928.19;5019296;28;20072;-50
2022/06/14 11:12:53;;;;;;;5.00;0.90;;;;;;;18.78;39.92;101919.31;5022105;28;20025;-51
2022/06/14 11:15:35;;;;;;;4.65;1.10;;;;;;;18.74;39.64;101921.34;5017902;28;20079;-51
2022/06/14 11:18:42;;;;;;;4.93;1.15;;;;;;;18.64;39.71;101923.00;5022385;28;20036;-53
2022/06/14 11:21:53;;;;;;;3.72;1.05;;;;;;;18.61;39.79;101925.91;5025049;28;20493;-50
2022/06/14 11:24:26;;;;;;;5.88;2.20;;;;;;;18.50;39.96;101922.22;5019810;28;20544;-53
2022/06/14 11:27:07;;;;;;;5.13;1.10;;;;;;;18.49;39.68;101924.97;5025345;28;20500;-50
2022/06/14 11:30:04;;;;;;;3.92;1.08;;;;;;;18.44;39.85;101927.97;5025413;28;20059;-52
2022/06/14 11:32:36;;;;;;;5.55;1.10;;;;;;;18.38;40.03;101936.41;5024283;28;20025;-50
2022/06/14 11:35:23;;;;;;;5.63;1.15;;;;;;;18.38;40.19;101944.38;5028471;28;20044;-53
2022/06/14 11:38:13;;;;;;;5.75;1.40;;;;;;;18.32;39.99;101935.03;5012280;28;20029;-50
2022/06/14 11:40:48;;;;;;;3.85;1.42;;;;;;;18.25;40.38;101931.97;5019950;28;20029;-52
2022/06/14 11:43:32;;;;;;;5.90;1.40;;;;;;;18.22;40.51;101937.53;5021850;28;20059;-52
2022/06/14 11:46:06;;;;;;;7.25;1.33;;;;;;;18.24;40.83;101942.72;5017484;28;20151;-53
2022/06/14 11:48:40;;;;;;;5.68;1.38;;;;;;;18.26;40.84;101936.31;5015650;28;20029;-51
2022/06/14 11:51:08;;;;;;;4.97;1.27;;;;;;;18.32;40.87;101936.84;5019265;28;20029;-53
2022/06/14 11:53:40;;;;;;;3.70;1.10;;;;;;;18.39;40.40;101946.97;5010394;28;20060;-51
2022/06/14 11:56:11;;;;;;;6.13;1.20;;;;;;;18.46;40.26;101939.38;5017081;28;20029;-50
2022/06/14 11:59:18;;;;;;;2.90;0.95;;;;;;;18.50;40.03;101921.34;5021298;28;20121;-50
2022/06/14 12:01:43;;;;;;;7.53;1.25;;;;;;;18.51;40.33;101939.91;5012330;28;20037;-51
2022/06/14 12:04:34;;;;;;;4.35;1.08;;;;;;;18.51;40.19;101925.72;5006513;28;20409;-55
2022/06/14 12:07:20;;;;;;;6.13;1.00;;;;;;;18.50;40.49;101916.88;5019049;28;20025;-50
2022/06/14 12:10:04;;;;;;;7.63;1.30;;;;;;;18.57;40.58;101928.78;5019184;28;20036;-52
2022/06/14 12:12:58;;;;;;;9.23;1.60;;;;;;;18.59;40.57;101931.34;5027402;28;20039;-53
2022/06/14 12:15:38;;;;;;;5.05;1.10;;;;;;;18.55;40.25;101940.53;5019907;28;20021;-50
2022/06/14 12:18:08;;;;;;;4.85;1.30;;;;;;;18.52;40.26;101925.63;5019050;28;20424;-50
2022/06/14 12:20:56;;;;;;;6.97;1.30;;;;;;;18.52;40.03;101919.41;5019811;28;21186;-50
2022/06/14 12:23:37;;;;;;;7.35;1.40;;;;;;;18.52;39.70;101925.63;5016997;28;20033;-52
2022/06/14 12:26:37;;;;;;;140.68;28.80;;;;;;;18.54;40.16;101926.31;5015579;28;20037;-50
2022/06/14 12:29:22;;;;;;;7.80;1.75;;;;;;;18.59;40.13;101926.84;5020073;28;20030;-50
2022/06/14 12:31:55;;;;;;;9.32;1.42;;;;;;;18.64;40.16;101923.84;5024878;28;20029;-50